Time;durP1;ratioP1;P1;durP2;ratioP2;P2;SDS_P1;SDS_P2;PMS_P1;PMS_P2;Temp;Humidity;BMP_temperature;BMP_pressure;BME280_temperature;BME280_humidity;BME280_pressure;Samples;Min_cycle;Max_cycle;Signal;HPM_P1;HPM_P2
2022/03/13 00:00:20;;;;;;;22.80;17.73;;;;;;;;;;509791;28;1304;-74
2022/03/13 00:00:59;;;;;;;21.13;17.75;;;;;;;;;;513703;28;788;-74
2022/03/13 00:01:21;;;;;;;21.60;17.27;;;;;;;;;;513922;28;836;-74
2022/03/13 00:01:37;;;;;;;21.40;18.00;;;;;;;;;;513086;28;800;-74
2022/03/13 00:01:52;;;;;;;21.85;18.58;;;;;;;;;;515159;28;1248;-74
2022/03/13 00:02:09;;;;;;;22.70;18.33;;;;;;;;;;515022;28;1577;-74
2022/03/13 00:02:25;;;;;;;22.40;17.98;;;;;;;;;;513847;28;1434;-74
2022/03/13 00:02:40;;;;;;;21.70;18.00;;;;;;;;;;511904;28;1363;-74
2022/03/13 00:02:56;;;;;;;21.77;17.80;;;;;;;;;;511622;28;1479;-75
2022/03/13 00:03:11;;;;;;;21.25;17.90;;;;;;;;;;510958;29;1461;-74
2022/03/13 00:03:28;;;;;;;20.33;17.57;;;;;;;;;;510647;29;1942;-74
2022/03/13 00:03:43;;;;;;;20.85;17.63;;;;;;;;;;510244;29;1518;-74
2022/03/13 00:04:01;;;;;;;20.83;17.73;;;;;;;;;;511430;29;1514;-74
2022/03/13 00:04:16;;;;;;;20.10;17.45;;;;;;;;;;511834;29;876;-74
2022/03/13 00:04:31;;;;;;;20.90;17.60;;;;;;;;;;510499;29;1143;-74
2022/03/13 00:04:49;;;;;;;23.43;17.80;;;;;;;;;;512024;28;777;-74
2022/03/13 00:05:09;;;;;;;22.00;17.63;;;;;;;;;;511748;29;1431;-74
2022/03/13 00:05:24;;;;;;;20.48;17.45;;;;;;;;;;511593;29;730;-74
2022/03/13 00:05:42;;;;;;;21.38;17.42;;;;;;;;;;511415;29;730;-74
2022/03/13 00:05:57;;;;;;;21.90;17.75;;;;;;;;;;511410;29;963;-74
2022/03/13 00:06:14;;;;;;;22.33;18.13;;;;;;;;;;509555;29;1389;-74
2022/03/13 00:06:35;;;;;;;21.67;18.17;;;;;;;;;;511129;29;754;-74
2022/03/13 00:06:51;;;;;;;22.00;17.98;;;;;;;;;;511458;29;903;-74
2022/03/13 00:07:09;;;;;;;23.47;18.10;;;;;;;;;;509671;29;1197;-74
2022/03/13 00:07:27;;;;;;;21.83;17.65;;;;;;;;;;509833;29;1027;-74
2022/03/13 00:07:44;;;;;;;21.88;17.85;;;;;;;;;;509813;29;1414;-74
2022/03/13 00:08:00;;;;;;;22.13;18.15;;;;;;;;;;509821;29;775;-74
2022/03/13 00:08:31;;;;;;;21.42;17.63;;;;;;;;;;511937;28;1540;-75
2022/03/13 00:08:55;;;;;;;23.17;18.15;;;;;;;;;;513365;28;816;-74
2022/03/13 00:09:14;;;;;;;22.35;17.67;;;;;;;;;;513913;28;1383;-74
2022/03/13 00:09:29;;;;;;;21.63;17.80;;;;;;;;;;512093;29;1269;-74
2022/03/13 00:09:53;;;;;;;23.90;18.38;;;;;;;;;;511510;29;880;-74
2022/03/13 00:10:10;;;;;;;24.13;18.13;;;;;;;;;;512120;29;861;-74
2022/03/13 00:10:27;;;;;;;22.50;17.75;;;;;;;;;;509878;29;1257;-74
2022/03/13 00:10:44;;;;;;;22.10;17.80;;;;;;;;;;509887;29;1336;-74
2022/03/13 00:11:07;;;;;;;22.00;17.63;;;;;;;;;;510107;28;1121;-73
2022/03/13 00:11:23;;;;;;;22.60;17.33;;;;;;;;;;512972;28;860;-74
2022/03/13 00:11:39;;;;;;;22.13;17.90;;;;;;;;;;513571;28;835;-74
2022/03/13 00:11:54;;;;;;;21.63;17.60;;;;;;;;;;512980;28;1076;-74
2022/03/13 00:12:14;;;;;;;22.60;17.40;;;;;;;;;;511737;29;849;-74
2022/03/13 00:12:32;;;;;;;22.48;17.67;;;;;;;;;;511582;29;1669;-74
2022/03/13 00:12:48;;;;;;;22.00;17.75;;;;;;;;;;509961;29;1336;-74
2022/03/13 00:13:04;;;;;;;22.48;17.85;;;;;;;;;;510209;29;762;-74
2022/03/13 00:13:20;;;;;;;22.48;17.60;;;;;;;;;;510417;29;1668;-75
2022/03/13 00:13:38;;;;;;;22.27;17.40;;;;;;;;;;512323;29;754;-74
2022/03/13 00:13:53;;;;;;;22.55;17.05;;;;;;;;;;510021;29;876;-74
2022/03/13 00:14:10;;;;;;;21.60;17.27;;;;;;;;;;509785;29;756;-74
2022/03/13 00:14:25;;;;;;;21.23;16.88;;;;;;;;;;511985;29;1214;-74
2022/03/13 00:14:43;;;;;;;22.67;17.00;;;;;;;;;;509702;29;1313;-74
2022/03/13 00:15:02;;;;;;;23.35;17.25;;;;;;;;;;507796;29;1354;-74
2022/03/13 00:15:24;;;;;;;22.35;17.13;;;;;;;;;;510428;29;877;-74
2022/03/13 00:15:41;;;;;;;21.95;17.23;;;;;;;;;;510037;29;1239;-74
2022/03/13 00:16:03;;;;;;;20.42;16.85;;;;;;;;;;510145;29;868;-74
2022/03/13 00:16:20;;;;;;;21.63;17.38;;;;;;;;;;510074;29;785;-74
2022/03/13 00:16:36;;;;;;;21.65;17.23;;;;;;;;;;509044;29;1372;-74
2022/03/13 00:16:53;;;;;;;21.83;16.77;;;;;;;;;;508792;29;1219;-74
2022/03/13 00:17:14;;;;;;;22.02;16.73;;;;;;;;;;509946;29;789;-74
2022/03/13 00:17:29;;;;;;;20.33;16.45;;;;;;;;;;508348;29;836;-74
2022/03/13 00:17:45;;;;;;;19.85;16.50;;;;;;;;;;506892;29;1197;-74
2022/03/13 00:18:01;;;;;;;19.70;16.40;;;;;;;;;;504353;29;1242;-73
2022/03/13 00:18:16;;;;;;;19.52;16.38;;;;;;;;;;504863;29;1484;-74
2022/03/13 00:18:32;;;;;;;20.20;16.77;;;;;;;;;;505894;29;1170;-74
2022/03/13 00:18:48;;;;;;;20.17;16.90;;;;;;;;;;505620;29;1392;-74
2022/03/13 00:19:06;;;;;;;18.90;16.23;;;;;;;;;;506108;29;822;-74
2022/03/13 00:19:22;;;;;;;19.75;16.20;;;;;;;;;;504837;29;1246;-74
2022/03/13 00:19:38;;;;;;;20.60;16.80;;;;;;;;;;503905;29;1418;-74
2022/03/13 00:19:58;;;;;;;20.85;16.83;;;;;;;;;;504602;29;1196;-75
2022/03/13 00:20:13;;;;;;;20.48;16.33;;;;;;;;;;505627;29;715;-74
2022/03/13 00:20:29;;;;;;;19.97;16.30;;;;;;;;;;505429;29;1151;-74
2022/03/13 00:20:44;;;;;;;19.05;16.70;;;;;;;;;;506306;29;730;-74
2022/03/13 00:21:03;;;;;;;18.92;16.40;;;;;;;;;;506232;29;782;-73
2022/03/13 00:21:20;;;;;;;19.80;15.90;;;;;;;;;;505804;29;1274;-74
2022/03/13 00:21:35;;;;;;;20.45;16.23;;;;;;;;;;506132;29;1382;-74
2022/03/13 00:21:52;;;;;;;20.92;16.63;;;;;;;;;;507222;29;1200;-74
2022/03/13 00:22:09;;;;;;;21.55;16.90;;;;;;;;;;508142;29;1042;-74
2022/03/13 00:22:24;;;;;;;20.02;16.58;;;;;;;;;;508863;29;873;-74
2022/03/13 00:22:41;;;;;;;19.47;16.33;;;;;;;;;;509868;29;1388;-74
2022/03/13 00:22:57;;;;;;;19.08;16.30;;;;;;;;;;508471;29;1671;-74
2022/03/13 00:23:12;;;;;;;19.08;16.38;;;;;;;;;;507188;29;1463;-74
2022/03/13 00:23:28;;;;;;;20.70;16.57;;;;;;;;;;507191;29;1918;-74
2022/03/13 00:23:44;;;;;;;20.67;16.30;;;;;;;;;;509217;29;740;-74
2022/03/13 00:24:00;;;;;;;20.58;16.15;;;;;;;;;;509892;29;1258;-74
2022/03/13 00:24:20;;;;;;;20.47;16.40;;;;;;;;;;509166;29;932;-74
2022/03/13 00:24:35;;;;;;;20.73;16.73;;;;;;;;;;507721;29;876;-74
2022/03/13 00:24:51;;;;;;;20.63;16.77;;;;;;;;;;506508;29;1236;-74
2022/03/13 00:25:08;;;;;;;20.67;17.03;;;;;;;;;;506026;29;1051;-74
2022/03/13 00:25:25;;;;;;;21.42;16.63;;;;;;;;;;506973;29;1491;-74
2022/03/13 00:25:41;;;;;;;21.92;16.75;;;;;;;;;;507659;29;1130;-74
2022/03/13 00:25:56;;;;;;;21.58;17.25;;;;;;;;;;508807;29;1168;-74
2022/03/13 00:26:13;;;;;;;21.90;17.37;;;;;;;;;;510119;29;742;-74
2022/03/13 00:26:29;;;;;;;21.50;17.20;;;;;;;;;;509888;29;837;-74
2022/03/13 00:26:44;;;;;;;21.00;17.42;;;;;;;;;;510714;29;789;-74
2022/03/13 00:27:00;;;;;;;20.33;17.30;;;;;;;;;;510010;29;1154;-74
2022/03/13 00:27:15;;;;;;;19.95;17.30;;;;;;;;;;508760;29;1289;-74
2022/03/13 00:27:31;;;;;;;19.57;16.93;;;;;;;;;;510122;29;1170;-75
2022/03/13 00:27:47;;;;;;;19.33;16.40;;;;;;;;;;510062;29;1324;-74
2022/03/13 00:28:03;;;;;;;19.73;16.42;;;;;;;;;;510108;29;1307;-74
2022/03/13 00:28:18;;;;;;;20.13;16.40;;;;;;;;;;509354;29;1656;-74
2022/03/13 00:28:36;;;;;;;22.55;16.30;;;;;;;;;;509596;29;923;-74
2022/03/13 00:28:52;;;;;;;23.02;16.05;;;;;;;;;;507854;29;1258;-74
2022/03/13 00:29:09;;;;;;;21.40;16.13;;;;;;;;;;508699;29;789;-74
2022/03/13 00:29:24;;;;;;;20.83;16.27;;;;;;;;;;510156;29;825;-74
2022/03/13 00:29:41;;;;;;;20.70;16.30;;;;;;;;;;508875;29;1227;-74
2022/03/13 00:29:57;;;;;;;21.40;16.42;;;;;;;;;;509573;29;1402;-74
2022/03/13 00:30:13;;;;;;;21.63;16.67;;;;;;;;;;509991;29;1340;-74
2022/03/13 00:30:28;;;;;;;20.03;16.47;;;;;;;;;;509988;29;762;-74
2022/03/13 00:30:44;;;;;;;20.10;16.30;;;;;;;;;;509390;29;1434;-74
2022/03/13 00:31:00;;;;;;;19.80;16.50;;;;;;;;;;509827;29;738;-74
2022/03/13 00:31:15;;;;;;;20.08;16.70;;;;;;;;;;510089;29;872;-74
2022/03/13 00:31:30;;;;;;;21.03;16.67;;;;;;;;;;510013;29;916;-74
2022/03/13 00:31:46;;;;;;;20.27;16.43;;;;;;;;;;510540;29;872;-74
2022/03/13 00:32:01;;;;;;;19.92;16.83;;;;;;;;;;512361;28;1005;-74
2022/03/13 00:32:17;;;;;;;20.50;16.92;;;;;;;;;;511906;29;1187;-74
2022/03/13 00:32:33;;;;;;;20.77;17.10;;;;;;;;;;511818;28;1001;-75
2022/03/13 00:32:49;;;;;;;21.00;17.17;;;;;;;;;;511621;29;791;-74
2022/03/13 00:33:04;;;;;;;20.52;16.63;;;;;;;;;;512127;28;1370;-74
2022/03/13 00:33:20;;;;;;;20.00;16.17;;;;;;;;;;513036;28;1470;-74
2022/03/13 00:33:35;;;;;;;20.38;16.38;;;;;;;;;;509924;29;1308;-74
2022/03/13 00:33:51;;;;;;;20.33;16.80;;;;;;;;;;507911;29;1180;-74
2022/03/13 00:34:07;;;;;;;19.37;16.60;;;;;;;;;;507949;29;1147;-74
2022/03/13 00:34:22;;;;;;;19.15;15.90;;;;;;;;;;509989;29;876;-74
2022/03/13 00:34:38;;;;;;;18.23;15.43;;;;;;;;;;509991;29;928;-74
2022/03/13 00:34:53;;;;;;;19.03;16.13;;;;;;;;;;509142;29;781;-74
2022/03/13 00:35:10;;;;;;;20.17;16.67;;;;;;;;;;509948;29;770;-74
2022/03/13 00:35:27;;;;;;;20.75;16.77;;;;;;;;;;510104;29;778;-74
2022/03/13 00:35:43;;;;;;;20.73;16.40;;;;;;;;;;510814;29;976;-74
2022/03/13 00:35:58;;;;;;;20.42;16.23;;;;;;;;;;512049;29;777;-74
2022/03/13 00:36:14;;;;;;;20.92;17.17;;;;;;;;;;512070;29;1178;-74
2022/03/13 00:36:29;;;;;;;21.07;17.40;;;;;;;;;;511931;29;809;-74
2022/03/13 00:36:44;;;;;;;19.88;16.85;;;;;;;;;;509914;29;1123;-74
2022/03/13 00:37:00;;;;;;;20.13;16.80;;;;;;;;;;509574;29;757;-74
2022/03/13 00:37:15;;;;;;;21.10;16.77;;;;;;;;;;510193;29;699;-74
2022/03/13 00:37:31;;;;;;;21.20;16.40;;;;;;;;;;508050;29;1259;-74
2022/03/13 00:37:46;;;;;;;20.65;16.05;;;;;;;;;;508251;29;758;-74
2022/03/13 00:38:01;;;;;;;22.10;16.53;;;;;;;;;;506499;29;1180;-74
2022/03/13 00:38:19;;;;;;;21.93;16.63;;;;;;;;;;506143;29;1511;-74
2022/03/13 00:38:34;;;;;;;19.85;16.45;;;;;;;;;;506737;29;798;-74
2022/03/13 00:38:49;;;;;;;20.23;16.70;;;;;;;;;;510039;29;783;-74
2022/03/13 00:39:05;;;;;;;20.43;16.63;;;;;;;;;;509695;29;816;-74
2022/03/13 00:39:20;;;;;;;20.65;16.60;;;;;;;;;;509040;29;983;-74
2022/03/13 00:39:38;;;;;;;20.73;16.77;;;;;;;;;;508187;29;1131;-74
2022/03/13 00:39:56;;;;;;;20.65;16.75;;;;;;;;;;506374;29;1427;-75
2022/03/13 00:40:12;;;;;;;19.77;16.05;;;;;;;;;;509265;29;896;-74
2022/03/13 00:40:27;;;;;;;20.25;15.85;;;;;;;;;;511982;29;1031;-74
2022/03/13 00:40:48;;;;;;;21.50;16.40;;;;;;;;;;511951;29;972;-74
2022/03/13 00:41:04;;;;;;;19.73;16.23;;;;;;;;;;511658;29;813;-74
2022/03/13 00:41:19;;;;;;;19.50;16.27;;;;;;;;;;511704;29;1288;-74
2022/03/13 00:41:35;;;;;;;20.67;16.33;;;;;;;;;;513831;28;777;-74
2022/03/13 00:41:50;;;;;;;19.63;16.17;;;;;;;;;;511162;29;1407;-74
2022/03/13 00:42:07;;;;;;;18.17;15.93;;;;;;;;;;511959;29;782;-74
2022/03/13 00:42:23;;;;;;;18.80;16.10;;;;;;;;;;509940;29;1247;-74
2022/03/13 00:42:39;;;;;;;19.67;16.63;;;;;;;;;;510079;29;1456;-74
2022/03/13 00:42:55;;;;;;;20.03;16.30;;;;;;;;;;510079;29;774;-74
2022/03/13 00:43:11;;;;;;;19.48;16.10;;;;;;;;;;509192;29;1567;-74
2022/03/13 00:43:29;;;;;;;19.50;16.20;;;;;;;;;;509684;29;1952;-74
2022/03/13 00:43:45;;;;;;;19.50;16.50;;;;;;;;;;510993;29;801;-74
2022/03/13 00:44:00;;;;;;;20.30;16.47;;;;;;;;;;509501;29;1163;-74
2022/03/13 00:44:15;;;;;;;20.20;16.13;;;;;;;;;;509036;29;1131;-74
2022/03/13 00:44:30;;;;;;;18.85;16.13;;;;;;;;;;508752;29;1222;-74
2022/03/13 00:44:46;;;;;;;19.00;16.20;;;;;;;;;;507456;29;1235;-74
2022/03/13 00:45:01;;;;;;;19.33;16.17;;;;;;;;;;506154;29;1285;-74
2022/03/13 00:45:17;;;;;;;19.33;16.02;;;;;;;;;;503784;29;1199;-74
2022/03/13 00:45:32;;;;;;;18.43;15.77;;;;;;;;;;505924;29;1135;-74
2022/03/13 00:45:48;;;;;;;19.30;16.00;;;;;;;;;;507754;29;1180;-74
2022/03/13 00:46:03;;;;;;;19.13;16.17;;;;;;;;;;507933;29;1131;-74
2022/03/13 00:46:18;;;;;;;19.40;16.00;;;;;;;;;;508176;29;734;-74
2022/03/13 00:46:35;;;;;;;19.77;16.27;;;;;;;;;;508184;29;1098;-74
2022/03/13 00:46:50;;;;;;;19.77;16.90;;;;;;;;;;510357;29;781;-75
2022/03/13 00:47:06;;;;;;;19.67;16.92;;;;;;;;;;511750;29;770;-75
2022/03/13 00:47:22;;;;;;;19.83;16.52;;;;;;;;;;511478;29;777;-74
2022/03/13 00:47:37;;;;;;;19.70;16.40;;;;;;;;;;512307;28;1363;-74
2022/03/13 00:47:52;;;;;;;19.45;16.50;;;;;;;;;;513420;28;1450;-74
2022/03/13 00:48:08;;;;;;;19.00;16.13;;;;;;;;;;512091;28;1481;-74
2022/03/13 00:48:25;;;;;;;19.40;16.03;;;;;;;;;;512507;28;759;-74
2022/03/13 00:48:41;;;;;;;20.30;16.25;;;;;;;;;;513402;28;792;-74
2022/03/13 00:48:56;;;;;;;19.40;16.20;;;;;;;;;;512181;29;1182;-74
2022/03/13 00:49:12;;;;;;;19.20;16.27;;;;;;;;;;512521;28;805;-74
2022/03/13 00:49:27;;;;;;;18.87;16.10;;;;;;;;;;510660;29;1392;-74
2022/03/13 00:49:42;;;;;;;18.55;15.98;;;;;;;;;;510410;29;1465;-74
2022/03/13 00:49:57;;;;;;;19.83;16.47;;;;;;;;;;511689;29;1395;-74
2022/03/13 00:50:13;;;;;;;19.60;16.80;;;;;;;;;;511869;29;1131;-74
2022/03/13 00:50:28;;;;;;;20.40;16.52;;;;;;;;;;510096;29;1190;-74
2022/03/13 00:50:44;;;;;;;21.00;16.27;;;;;;;;;;510355;29;852;-74
2022/03/13 00:51:00;;;;;;;20.80;16.15;;;;;;;;;;511818;29;1042;-74
2022/03/13 00:51:15;;;;;;;20.90;16.40;;;;;;;;;;512137;29;781;-74
2022/03/13 00:51:30;;;;;;;20.57;16.70;;;;;;;;;;509873;29;1557;-74
2022/03/13 00:51:46;;;;;;;20.07;16.83;;;;;;;;;;508056;29;1494;-74
2022/03/13 00:52:03;;;;;;;20.25;16.45;;;;;;;;;;506319;29;1250;-74
2022/03/13 00:52:18;;;;;;;19.92;15.95;;;;;;;;;;508740;29;821;-74
2022/03/13 00:52:33;;;;;;;19.43;16.10;;;;;;;;;;509893;29;671;-74
2022/03/13 00:52:49;;;;;;;18.87;16.30;;;;;;;;;;507809;29;1328;-74
2022/03/13 00:53:05;;;;;;;18.83;16.40;;;;;;;;;;507942;29;738;-74
2022/03/13 00:53:20;;;;;;;18.75;16.50;;;;;;;;;;506856;29;1741;-74
2022/03/13 00:53:38;;;;;;;18.77;16.43;;;;;;;;;;508152;29;1178;-74
2022/03/13 00:53:53;;;;;;;20.45;16.50;;;;;;;;;;506750;29;1246;-74
2022/03/13 00:54:08;;;;;;;20.97;16.87;;;;;;;;;;507952;29;831;-74
2022/03/13 00:54:24;;;;;;;19.95;16.83;;;;;;;;;;509885;29;1537;-74
2022/03/13 00:54:40;;;;;;;19.07;16.53;;;;;;;;;;507794;29;1167;-74
2022/03/13 00:54:55;;;;;;;19.77;16.50;;;;;;;;;;507502;29;1293;-75
2022/03/13 00:55:10;;;;;;;20.97;16.73;;;;;;;;;;508048;29;809;-74
2022/03/13 00:55:25;;;;;;;20.90;16.80;;;;;;;;;;507969;29;937;-74
2022/03/13 00:55:41;;;;;;;20.75;16.98;;;;;;;;;;507740;29;810;-74
2022/03/13 00:55:56;;;;;;;20.97;16.93;;;;;;;;;;507692;29;742;-74
2022/03/13 00:56:11;;;;;;;20.47;16.90;;;;;;;;;;508304;29;736;-74
2022/03/13 00:56:27;;;;;;;21.08;17.40;;;;;;;;;;509993;29;1300;-74
2022/03/13 00:56:42;;;;;;;22.47;17.47;;;;;;;;;;511748;29;725;-74
2022/03/13 00:56:57;;;;;;;21.40;17.20;;;;;;;;;;511739;29;752;-74
2022/03/13 00:57:13;;;;;;;20.63;16.67;;;;;;;;;;512034;29;864;-74
2022/03/13 00:57:29;;;;;;;21.05;16.35;;;;;;;;;;509780;29;1279;-74
2022/03/13 00:57:44;;;;;;;19.73;16.57;;;;;;;;;;507624;29;1174;-74
2022/03/13 00:57:59;;;;;;;19.90;17.10;;;;;;;;;;507713;29;1306;-74
2022/03/13 00:58:15;;;;;;;20.45;16.88;;;;;;;;;;508591;29;1486;-74
2022/03/13 00:58:30;;;;;;;19.70;16.33;;;;;;;;;;508255;29;1198;-74
2022/03/13 00:58:45;;;;;;;20.83;16.67;;;;;;;;;;508997;29;751;-74
2022/03/13 00:59:00;;;;;;;21.80;17.13;;;;;;;;;;509743;29;798;-74
2022/03/13 00:59:16;;;;;;;21.77;17.23;;;;;;;;;;506898;29;1236;-74
2022/03/13 00:59:31;;;;;;;20.43;17.00;;;;;;;;;;507908;29;1013;-74
2022/03/13 00:59:46;;;;;;;19.83;17.08;;;;;;;;;;509205;29;801;-74
2022/03/13 01:00:04;;;;;;;21.63;17.30;;;;;;;;;;509393;29;917;-74
2022/03/13 01:00:19;;;;;;;21.25;17.00;;;;;;;;;;510779;29;1200;-74
2022/03/13 01:00:34;;;;;;;20.70;16.80;;;;;;;;;;509829;29;1284;-74
2022/03/13 01:00:50;;;;;;;20.47;16.87;;;;;;;;;;509577;29;774;-74
2022/03/13 01:01:05;;;;;;;21.87;16.80;;;;;;;;;;510348;29;1146;-74
2022/03/13 01:01:20;;;;;;;22.10;16.75;;;;;;;;;;512080;29;809;-74
2022/03/13 01:01:35;;;;;;;20.57;17.00;;;;;;;;;;511895;28;1230;-74
2022/03/13 01:01:51;;;;;;;21.27;17.03;;;;;;;;;;513888;28;745;-74
2022/03/13 01:02:06;;;;;;;22.00;17.20;;;;;;;;;;511486;29;1256;-74
2022/03/13 01:02:22;;;;;;;21.30;17.20;;;;;;;;;;511783;29;746;-74
2022/03/13 01:02:38;;;;;;;20.13;16.90;;;;;;;;;;511735;29;1306;-74
2022/03/13 01:02:53;;;;;;;20.42;16.63;;;;;;;;;;509928;29;1279;-74
2022/03/13 01:03:29;;;;;;;20.80;16.30;;;;;;;;;;508951;29;1525;-74
2022/03/13 01:03:45;;;;;;;20.83;16.65;;;;;;;;;;507061;29;1262;-74
2022/03/13 01:04:00;;;;;;;19.85;16.50;;;;;;;;;;507231;29;762;-74
2022/03/13 01:04:16;;;;;;;20.20;16.87;;;;;;;;;;506840;29;826;-74
2022/03/13 01:04:31;;;;;;;20.42;16.70;;;;;;;;;;507164;29;758;-74
2022/03/13 01:04:47;;;;;;;20.67;16.70;;;;;;;;;;508270;29;707;-74
2022/03/13 01:05:03;;;;;;;21.15;17.13;;;;;;;;;;508875;29;1304;-74
2022/03/13 01:05:23;;;;;;;19.58;16.60;;;;;;;;;;508565;29;790;-74
2022/03/13 01:05:39;;;;;;;19.50;16.33;;;;;;;;;;510915;29;1005;-74
2022/03/13 01:05:54;;;;;;;20.60;16.70;;;;;;;;;;511639;29;853;-74
2022/03/13 01:06:10;;;;;;;20.80;16.57;;;;;;;;;;511402;29;825;-74
2022/03/13 01:06:25;;;;;;;20.90;16.35;;;;;;;;;;509823;29;1246;-74
2022/03/13 01:06:41;;;;;;;19.83;16.10;;;;;;;;;;509887;29;770;-74
2022/03/13 01:06:56;;;;;;;19.95;16.20;;;;;;;;;;510951;29;833;-74
2022/03/13 01:07:14;;;;;;;21.37;16.53;;;;;;;;;;510684;29;1155;-74
2022/03/13 01:07:29;;;;;;;21.80;16.90;;;;;;;;;;511921;29;754;-74
2022/03/13 01:07:44;;;;;;;22.90;17.90;;;;;;;;;;510012;29;1135;-74
2022/03/13 01:08:00;;;;;;;22.92;18.85;;;;;;;;;;509872;29;913;-74
2022/03/13 01:08:15;;;;;;;22.07;18.80;;;;;;;;;;507153;29;1479;-74
2022/03/13 01:08:31;;;;;;;22.05;18.08;;;;;;;;;;508467;29;851;-74
2022/03/13 01:08:47;;;;;;;22.30;17.70;;;;;;;;;;509240;29;924;-74
2022/03/13 01:09:03;;;;;;;22.33;17.75;;;;;;;;;;509982;29;789;-74
2022/03/13 01:09:18;;;;;;;20.10;16.93;;;;;;;;;;511337;29;959;-74
2022/03/13 01:09:34;;;;;;;19.58;16.67;;;;;;;;;;511906;29;796;-74
2022/03/13 01:09:49;;;;;;;21.05;17.40;;;;;;;;;;511475;29;722;-74
2022/03/13 01:10:07;;;;;;;21.23;17.63;;;;;;;;;;512031;29;1284;-74
2022/03/13 01:10:23;;;;;;;20.65;17.45;;;;;;;;;;510998;29;998;-74
2022/03/13 01:10:39;;;;;;;22.88;19.58;;;;;;;;;;510007;29;1336;-74
2022/03/13 01:10:54;;;;;;;24.97;21.43;;;;;;;;;;507641;29;1313;-74
2022/03/13 01:11:10;;;;;;;24.33;21.10;;;;;;;;;;509467;29;731;-74
2022/03/13 01:11:25;;;;;;;23.83;20.95;;;;;;;;;;507893;29;1298;-74
2022/03/13 01:11:41;;;;;;;23.93;20.70;;;;;;;;;;505813;29;1491;-74
2022/03/13 01:11:56;;;;;;;24.67;20.10;;;;;;;;;;505173;29;1188;-74
2022/03/13 01:12:12;;;;;;;24.58;19.92;;;;;;;;;;504075;29;1321;-74
2022/03/13 01:12:27;;;;;;;22.13;19.73;;;;;;;;;;503530;29;1195;-74
2022/03/13 01:12:43;;;;;;;21.98;19.58;;;;;;;;;;506102;29;1413;-74
2022/03/13 01:12:58;;;;;;;23.07;19.90;;;;;;;;;;507983;29;1286;-74
2022/03/13 01:13:13;;;;;;;23.45;20.02;;;;;;;;;;507333;29;1633;-74
2022/03/13 01:13:30;;;;;;;22.83;19.60;;;;;;;;;;508482;29;1233;-74
2022/03/13 01:13:46;;;;;;;21.35;18.75;;;;;;;;;;509676;29;790;-74
2022/03/13 01:14:01;;;;;;;23.02;18.40;;;;;;;;;;509445;29;1256;-74
2022/03/13 01:14:19;;;;;;;24.17;18.25;;;;;;;;;;507836;29;1167;-74
2022/03/13 01:14:36;;;;;;;22.55;17.98;;;;;;;;;;504897;29;1351;-74
2022/03/13 01:14:51;;;;;;;21.65;18.23;;;;;;;;;;506150;29;1264;-74
2022/03/13 01:15:09;;;;;;;21.23;17.70;;;;;;;;;;506082;29;1139;-74
2022/03/13 01:15:26;;;;;;;21.13;17.13;;;;;;;;;;507372;29;973;-74
2022/03/13 01:15:49;;;;;;;21.58;17.13;;;;;;;;;;506202;29;1297;-74
2022/03/13 01:16:14;;;;;;;20.50;17.25;;;;;;;;;;508439;29;699;-74
2022/03/13 01:16:39;;;;;;;20.38;16.77;;;;;;;;;;511135;29;825;-74
2022/03/13 01:17:06;;;;;;;19.70;16.50;;;;;;;;;;512152;28;868;-74
2022/03/13 01:17:21;;;;;;;19.13;16.45;;;;;;;;;;511700;29;1202;-74
2022/03/13 01:17:36;;;;;;;21.30;16.87;;;;;;;;;;511027;29;1365;-74
2022/03/13 01:17:52;;;;;;;21.27;16.50;;;;;;;;;;509838;29;1150;-74
2022/03/13 01:18:07;;;;;;;20.35;16.45;;;;;;;;;;509359;29;1541;-74
2022/03/13 01:18:22;;;;;;;20.20;16.80;;;;;;;;;;506810;29;1419;-74
2022/03/13 01:18:39;;;;;;;19.83;16.60;;;;;;;;;;507490;29;798;-74
2022/03/13 01:19:00;;;;;;;21.15;16.90;;;;;;;;;;506020;29;905;-74
2022/03/13 01:19:15;;;;;;;21.35;17.00;;;;;;;;;;507998;29;2408;-74
2022/03/13 01:19:31;;;;;;;21.00;16.70;;;;;;;;;;511038;29;845;-74
2022/03/13 01:19:47;;;;;;;20.17;16.53;;;;;;;;;;510212;29;1146;-74
2022/03/13 01:20:04;;;;;;;20.73;16.80;;;;;;;;;;511897;29;757;-74
2022/03/13 01:20:21;;;;;;;20.35;16.90;;;;;;;;;;513175;28;809;-74
2022/03/13 01:20:36;;;;;;;21.15;16.95;;;;;;;;;;513633;28;786;-74
2022/03/13 01:20:51;;;;;;;20.57;16.60;;;;;;;;;;513429;28;796;-74
2022/03/13 01:21:07;;;;;;;20.80;16.77;;;;;;;;;;513617;28;1325;-74
2022/03/13 01:21:23;;;;;;;21.97;17.23;;;;;;;;;;513726;28;794;-74
2022/03/13 01:21:41;;;;;;;20.42;16.80;;;;;;;;;;511925;29;1111;-74
2022/03/13 01:21:56;;;;;;;19.77;16.45;;;;;;;;;;511823;29;900;-74
2022/03/13 01:22:12;;;;;;;20.20;16.48;;;;;;;;;;509932;29;1439;-74
2022/03/13 01:22:27;;;;;;;20.97;16.40;;;;;;;;;;510020;29;825;-74
2022/03/13 01:22:43;;;;;;;20.23;16.33;;;;;;;;;;510101;29;766;-74
2022/03/13 01:22:58;;;;;;;18.42;15.90;;;;;;;;;;509548;29;932;-74
2022/03/13 01:23:16;;;;;;;19.50;16.20;;;;;;;;;;510583;29;1537;-74
2022/03/13 01:23:32;;;;;;;20.27;16.73;;;;;;;;;;512682;28;1978;-74
2022/03/13 01:23:59;;;;;;;19.77;16.37;;;;;;;;;;512231;28;765;-74
2022/03/13 01:24:14;;;;;;;19.92;16.27;;;;;;;;;;512775;28;742;-74
2022/03/13 01:24:32;;;;;;;19.75;15.55;;;;;;;;;;513695;28;1174;-75
2022/03/13 01:24:47;;;;;;;19.80;15.73;;;;;;;;;;513055;28;754;-74
2022/03/13 01:25:03;;;;;;;18.88;16.05;;;;;;;;;;513441;28;721;-74
2022/03/13 01:25:18;;;;;;;18.60;15.80;;;;;;;;;;513543;28;865;-74
2022/03/13 01:25:33;;;;;;;19.50;16.13;;;;;;;;;;511661;29;1203;-74
2022/03/13 01:26:21;;;;;;;19.37;16.57;;;;;;;;;;509589;29;1203;-74
2022/03/13 01:26:38;;;;;;;20.35;17.08;;;;;;;;;;509858;29;1217;-74
2022/03/13 01:26:56;;;;;;;20.48;17.30;;;;;;;;;;509343;29;801;-74
2022/03/13 01:27:14;;;;;;;21.38;17.40;;;;;;;;;;507931;29;1369;-74
2022/03/13 01:27:31;;;;;;;22.67;17.30;;;;;;;;;;507129;29;1437;-74
2022/03/13 01:27:47;;;;;;;22.02;17.33;;;;;;;;;;508046;29;797;-74
2022/03/13 01:28:03;;;;;;;20.80;16.85;;;;;;;;;;507965;29;820;-74
2022/03/13 01:28:19;;;;;;;21.10;16.80;;;;;;;;;;508565;29;1576;-74
2022/03/13 01:28:34;;;;;;;21.30;16.95;;;;;;;;;;509516;29;834;-74
2022/03/13 01:28:55;;;;;;;21.17;16.70;;;;;;;;;;509833;29;1182;-74
2022/03/13 01:29:13;;;;;;;20.73;16.80;;;;;;;;;;509585;29;865;-73
2022/03/13 01:29:32;;;;;;;21.77;16.75;;;;;;;;;;509565;29;864;-74
2022/03/13 01:29:48;;;;;;;22.02;17.00;;;;;;;;;;507186;29;1355;-74
2022/03/13 01:30:04;;;;;;;21.08;17.02;;;;;;;;;;505820;29;1296;-74
2022/03/13 01:30:19;;;;;;;19.95;16.83;;;;;;;;;;504754;29;1182;-74
2022/03/13 01:30:35;;;;;;;20.43;16.63;;;;;;;;;;505883;29;1277;-74
2022/03/13 01:30:50;;;;;;;20.50;16.67;;;;;;;;;;507693;29;944;-74
2022/03/13 01:31:07;;;;;;;19.83;16.80;;;;;;;;;;507392;29;818;-74
2022/03/13 01:31:26;;;;;;;20.42;16.95;;;;;;;;;;508689;29;876;-74
2022/03/13 01:31:47;;;;;;;20.17;16.90;;;;;;;;;;510877;29;959;-74
2022/03/13 01:32:02;;;;;;;19.52;16.85;;;;;;;;;;511770;29;699;-74
2022/03/13 01:32:18;;;;;;;19.73;16.80;;;;;;;;;;509628;29;1285;-74
2022/03/13 01:32:34;;;;;;;20.80;16.70;;;;;;;;;;509267;29;1167;-75
2022/03/13 01:32:54;;;;;;;21.10;16.98;;;;;;;;;;509373;29;1364;-74
2022/03/13 01:33:10;;;;;;;21.30;16.90;;;;;;;;;;506863;29;1562;-74
2022/03/13 01:33:25;;;;;;;20.50;16.80;;;;;;;;;;506649;29;691;-74
2022/03/13 01:33:40;;;;;;;21.07;17.23;;;;;;;;;;507204;29;929;-74
2022/03/13 01:33:56;;;;;;;21.13;17.07;;;;;;;;;;505760;29;1242;-74
2022/03/13 01:34:25;;;;;;;20.13;16.58;;;;;;;;;;506262;29;1364;-74
2022/03/13 01:34:44;;;;;;;20.30;16.98;;;;;;;;;;508372;29;1237;-74
2022/03/13 01:34:59;;;;;;;21.63;17.13;;;;;;;;;;509839;29;770;-74
2022/03/13 01:35:19;;;;;;;21.93;17.20;;;;;;;;;;510046;29;836;-74
2022/03/13 01:35:34;;;;;;;21.77;16.80;;;;;;;;;;509692;29;1202;-74
2022/03/13 01:35:51;;;;;;;21.10;16.70;;;;;;;;;;509459;29;1021;-74
2022/03/13 01:36:06;;;;;;;21.10;17.08;;;;;;;;;;509519;29;798;-74
2022/03/13 01:36:23;;;;;;;20.77;17.30;;;;;;;;;;509610;29;1230;-74
2022/03/13 01:36:39;;;;;;;19.52;17.00;;;;;;;;;;509787;29;1313;-74
2022/03/13 01:36:54;;;;;;;20.75;17.45;;;;;;;;;;509933;29;810;-74
2022/03/13 01:37:19;;;;;;;22.60;17.80;;;;;;;;;;509936;29;730;-74
2022/03/13 01:37:38;;;;;;;22.77;18.20;;;;;;;;;;507774;29;1451;-74
2022/03/13 01:37:53;;;;;;;22.33;18.20;;;;;;;;;;510043;29;825;-74
2022/03/13 01:38:08;;;;;;;22.48;17.80;;;;;;;;;;510041;29;1575;-74
2022/03/13 01:38:24;;;;;;;21.90;17.30;;;;;;;;;;511939;29;1046;-74
2022/03/13 01:38:40;;;;;;;19.80;16.80;;;;;;;;;;511742;29;1328;-74
2022/03/13 01:38:58;;;;;;;19.85;16.50;;;;;;;;;;511796;29;1415;-74
2022/03/13 01:39:14;;;;;;;21.10;16.58;;;;;;;;;;511688;29;1324;-74
2022/03/13 01:39:30;;;;;;;20.70;16.65;;;;;;;;;;512561;28;877;-74
2022/03/13 01:39:46;;;;;;;19.75;16.30;;;;;;;;;;513456;28;864;-74
2022/03/13 01:40:09;;;;;;;19.58;16.20;;;;;;;;;;513950;28;876;-74
2022/03/13 01:40:24;;;;;;;22.42;17.60;;;;;;;;;;512162;28;821;-74
2022/03/13 01:40:39;;;;;;;25.60;19.87;;;;;;;;;;512057;29;797;-74